Time;durP1;ratioP1;P1;durP2;ratioP2;P2;SDS_P1;SDS_P2;PMS_P1;PMS_P2;Temp;Humidity;BMP_temperature;BMP_pressure;BME280_temperature;BME280_humidity;BME280_pressure;Samples;Min_cycle;Max_cycle;Signal;HPM_P1;HPM_P2
2021/01/16 00:00:25;;;;;;;0.98;0.20;;;;;;;;;;5072604;28;20036;-77
2021/01/16 00:02:52;;;;;;;0.80;0.17;;;;;;;;;;5072528;28;20035;-76
2021/01/16 00:05:20;;;;;;;1.40;0.10;;;;;;;;;;5073879;28;20035;-78
2021/01/16 00:07:48;;;;;;;3.80;0.20;;;;;;;;;;5072107;28;20501;-78
2021/01/16 00:10:16;;;;;;;1.60;0.20;;;;;;;;;;5072517;28;20044;-78
2021/01/16 00:12:52;;;;;;;0.63;0.10;;;;;;;;;;5071683;28;20033;-79
2021/01/16 00:15:19;;;;;;;1.80;0.30;;;;;;;;;;5071811;28;20024;-78
2021/01/16 00:17:46;;;;;;;3.30;0.10;;;;;;;;;;5071338;28;20021;-78
2021/01/16 00:20:13;;;;;;;0.20;0.08;;;;;;;;;;5055526;28;20397;-79
2021/01/16 00:22:50;;;;;;;2.53;0.00;;;;;;;;;;5071969;28;20566;-79
2021/01/16 00:25:17;;;;;;;2.22;0.10;;;;;;;;;;5073526;28;20021;-79
2021/01/16 00:27:44;;;;;;;1.83;0.10;;;;;;;;;;5071941;28;20028;-79
2021/01/16 00:30:12;;;;;;;3.22;0.13;;;;;;;;;;5072260;28;20028;-79
2021/01/16 00:32:42;;;;;;;3.00;0.30;;;;;;;;;;5071178;28;20020;-79
2021/01/16 00:35:10;;;;;;;1.08;0.38;;;;;;;;;;5055463;28;20021;-79
2021/01/16 00:37:37;;;;;;;0.90;0.03;;;;;;;;;;5071755;28;20107;-78
2021/01/16 00:40:09;;;;;;;1.88;0.40;;;;;;;;;;5087023;22;20098;-79
2021/01/16 00:42:40;;;;;;;3.58;0.20;;;;;;;;;;5059190;22;20057;-79
2021/01/16 00:45:09;;;;;;;1.15;0.10;;;;;;;;;;5078656;22;20084;-80
2021/01/16 00:47:36;;;;;;;1.80;0.45;;;;;;;;;;5077269;22;20409;-78
2021/01/16 00:50:05;;;;;;;1.80;0.10;;;;;;;;;;5048837;28;20033;-79
2021/01/16 00:52:32;;;;;;;0.93;0.15;;;;;;;;;;5035226;28;20071;-80
2021/01/16 00:55:00;;;;;;;3.15;0.10;;;;;;;;;;5036464;28;20025;-79
2021/01/16 00:57:30;;;;;;;0.55;0.10;;;;;;;;;;5059373;22;20076;-78
2021/01/16 00:59:57;;;;;;;0.47;0.35;;;;;;;;;;5051396;28;20119;-79
2021/01/16 01:02:25;;;;;;;1.13;0.20;;;;;;;;;;5052202;28;20033;-79
2021/01/16 01:04:52;;;;;;;3.05;0.40;;;;;;;;;;5051013;28;20025;-79
2021/01/16 01:07:19;;;;;;;1.13;0.10;;;;;;;;;;5052713;28;20051;-78
2021/01/16 01:09:46;;;;;;;1.25;0.30;;;;;;;;;;5051196;28;20079;-80
2021/01/16 01:12:13;;;;;;;3.20;0.40;;;;;;;;;;5025929;28;20039;-79
2021/01/16 01:14:40;;;;;;;4.18;0.35;;;;;;;;;;5057742;22;20510;-78
2021/01/16 01:17:17;;;;;;;1.85;0.15;;;;;;;;;;5052397;28;20053;-78
2021/01/16 01:19:45;;;;;;;1.48;0.20;;;;;;;;;;5050872;28;20037;-78
2021/01/16 01:22:12;;;;;;;2.55;0.30;;;;;;;;;;5015470;28;20025;-78
2021/01/16 01:24:39;;;;;;;1.13;0.55;;;;;;;;;;5050143;28;20562;-76
2021/01/16 01:27:07;;;;;;;2.15;0.60;;;;;;;;;;5052475;28;20486;-81
2021/01/16 01:29:34;;;;;;;1.13;0.20;;;;;;;;;;5026278;28;20044;-87
2021/01/16 01:32:02;;;;;;;0.85;0.20;;;;;;;;;;5052395;28;20025;-78
2021/01/16 01:34:29;;;;;;;1.52;0.30;;;;;;;;;;5050706;28;20028;-75
2021/01/16 01:36:56;;;;;;;1.10;0.10;;;;;;;;;;5052105;28;20025;-86
2021/01/16 01:39:23;;;;;;;1.83;0.10;;;;;;;;;;5050062;28;20119;-79
2021/01/16 01:41:50;;;;;;;1.02;0.20;;;;;;;;;;5052071;28;20017;-76
2021/01/16 01:44:17;;;;;;;1.58;0.00;;;;;;;;;;5049937;28;20029;-75
2021/01/16 01:46:44;;;;;;;0.38;0.10;;;;;;;;;;5060006;22;20053;-82
2021/01/16 01:49:11;;;;;;;1.17;0.10;;;;;;;;;;5050284;28;20021;-81
2021/01/16 01:51:38;;;;;;;1.30;0.20;;;;;;;;;;5050916;28;20033;-79
2021/01/16 01:54:07;;;;;;;3.33;0.28;;;;;;;;;;5050117;28;20021;-80
2021/01/16 01:56:38;;;;;;;2.22;0.20;;;;;;;;;;5052170;28;20498;-81
2021/01/16 01:59:07;;;;;;;0.65;0.10;;;;;;;;;;5050281;28;20033;-80
2021/01/16 02:01:39;;;;;;;2.65;0.15;;;;;;;;;;5051967;28;20478;-80
2021/01/16 02:04:08;;;;;;;0.55;0.10;;;;;;;;;;5049536;28;20040;-78
2021/01/16 02:06:35;;;;;;;0.73;0.13;;;;;;;;;;5048400;28;20021;-79
2021/01/16 02:09:04;;;;;;;1.60;0.10;;;;;;;;;;5050180;28;20470;-79
2021/01/16 02:11:32;;;;;;;0.13;0.00;;;;;;;;;;5051739;28;20103;-79
2021/01/16 02:13:59;;;;;;;3.20;0.30;;;;;;;;;;5049789;28;20025;-79
2021/01/16 02:16:34;;;;;;;0.52;0.10;;;;;;;;;;5055070;28;20040;-81
2021/01/16 02:19:02;;;;;;;0.73;0.20;;;;;;;;;;5053968;28;20037;-80
2021/01/16 02:21:32;;;;;;;1.25;0.13;;;;;;;;;;5037962;28;20025;-79
2021/01/16 02:24:10;;;;;;;0.50;0.10;;;;;;;;;;5054010;28;20033;-78
2021/01/16 02:26:37;;;;;;;1.85;0.20;;;;;;;;;;5055686;28;20021;-80
2021/01/16 02:29:08;;;;;;;0.98;0.20;;;;;;;;;;5053762;28;20104;-77
2021/01/16 02:31:43;;;;;;;2.10;0.40;;;;;;;;;;5055939;28;20453;-78
2021/01/16 02:34:14;;;;;;;0.95;0.10;;;;;;;;;;5053776;28;20020;-78
2021/01/16 02:37:07;;;;;;;3.92;1.35;;;;;;;;;;5055507;28;20086;-78
2021/01/16 02:39:37;;;;;;;1.38;0.17;;;;;;;;;;5023955;28;20056;-78
2021/01/16 02:42:12;;;;;;;1.98;0.30;;;;;;;;;;5054515;28;20045;-84
2021/01/16 02:44:39;;;;;;;0.35;0.10;;;;;;;;;;5050688;28;20128;-77
2021/01/16 02:47:09;;;;;;;2.20;0.38;;;;;;;;;;5074241;22;20015;-77
2021/01/16 02:49:37;;;;;;;1.08;0.20;;;;;;;;;;5067470;22;20056;-76
2021/01/16 02:52:08;;;;;;;0.52;0.10;;;;;;;;;;5043799;22;20199;-82
2021/01/16 02:54:39;;;;;;;2.97;0.30;;;;;;;;;;5061874;22;20025;-80
2021/01/16 02:57:07;;;;;;;0.50;0.00;;;;;;;;;;5074267;28;20036;-79
2021/01/16 02:59:36;;;;;;;2.92;0.20;;;;;;;;;;5073128;28;20505;-79
2021/01/16 03:02:07;;;;;;;0.50;0.10;;;;;;;;;;5070293;28;20032;-80
2021/01/16 03:04:34;;;;;;;1.67;0.10;;;;;;;;;;5063270;22;20075;-81
2021/01/16 03:07:02;;;;;;;0.45;0.08;;;;;;;;;;5034289;28;20029;-86
2021/01/16 03:09:32;;;;;;;1.83;0.20;;;;;;;;;;5033733;28;20029;-91
2021/01/16 03:12:00;;;;;;;1.73;0.22;;;;;;;;;;5033321;28;20022;-87
2021/01/16 03:14:29;;;;;;;2.42;0.35;;;;;;;;;;5032866;28;20116;-86
2021/01/16 03:16:59;;;;;;;1.52;0.60;;;;;;;;;;5032264;28;20271;-84
2021/01/16 03:19:29;;;;;;;2.13;0.40;;;;;;;;;;5032214;28;20037;-84
2021/01/16 03:21:56;;;;;;;2.25;0.30;;;;;;;;;;5054844;22;20111;-84
2021/01/16 03:24:23;;;;;;;3.65;0.30;;;;;;;;;;5051818;28;20025;-85
2021/01/16 03:26:50;;;;;;;2.63;0.38;;;;;;;;;;5051333;28;20052;-83
2021/01/16 03:29:17;;;;;;;1.00;0.25;;;;;;;;;;5052729;28;20116;-83
2021/01/16 03:31:44;;;;;;;1.40;0.22;;;;;;;;;;5054108;28;20021;-86
2021/01/16 03:34:11;;;;;;;2.45;0.40;;;;;;;;;;5051094;28;20025;-82
2021/01/16 03:36:38;;;;;;;1.80;0.30;;;;;;;;;;5053325;28;20029;-83
2021/01/16 03:39:05;;;;;;;3.67;0.55;;;;;;;;;;5047802;28;20541;-83
2021/01/16 03:41:33;;;;;;;5.22;0.55;;;;;;;;;;5054140;28;20044;-82
2021/01/16 03:44:00;;;;;;;2.58;0.20;;;;;;;;;;5050980;28;20206;-83
2021/01/16 03:46:27;;;;;;;3.28;0.20;;;;;;;;;;5053819;28;20057;-83
2021/01/16 03:48:54;;;;;;;1.52;0.30;;;;;;;;;;5052098;28;20027;-82
2021/01/16 03:51:21;;;;;;;1.83;0.20;;;;;;;;;;5053966;28;20401;-82
2021/01/16 03:53:48;;;;;;;1.60;0.20;;;;;;;;;;5065540;22;20049;-83
2021/01/16 03:56:15;;;;;;;6.13;0.88;;;;;;;;;;5049888;28;20112;-83
2021/01/16 03:58:42;;;;;;;1.13;0.32;;;;;;;;;;5052509;28;20040;-82
2021/01/16 04:01:09;;;;;;;1.98;0.30;;;;;;;;;;5053508;28;20060;-82
2021/01/16 04:03:36;;;;;;;4.63;0.65;;;;;;;;;;5051447;28;20025;-84
2021/01/16 04:06:04;;;;;;;4.93;1.05;;;;;;;;;;5051491;28;20028;-85
2021/01/16 04:08:31;;;;;;;2.60;0.28;;;;;;;;;;5052396;28;20422;-84
2021/01/16 04:10:58;;;;;;;2.30;0.28;;;;;;;;;;5052931;28;20119;-85
2021/01/16 04:13:25;;;;;;;2.20;0.35;;;;;;;;;;5050478;28;20017;-84
2021/01/16 04:15:52;;;;;;;2.15;0.47;;;;;;;;;;5053325;28;20116;-83
2021/01/16 04:18:19;;;;;;;4.57;0.38;;;;;;;;;;5051821;28;20032;-84
2021/01/16 04:20:46;;;;;;;2.42;0.15;;;;;;;;;;5048590;28;20025;-81
2021/01/16 04:23:13;;;;;;;2.78;0.30;;;;;;;;;;5048078;28;20082;-82
2021/01/16 04:25:40;;;;;;;3.50;0.20;;;;;;;;;;5052493;28;20025;-83
2021/01/16 04:28:07;;;;;;;0.75;0.20;;;;;;;;;;5041216;28;20032;-83
2021/01/16 04:30:34;;;;;;;1.63;0.20;;;;;;;;;;5048971;28;20037;-85
2021/01/16 04:33:02;;;;;;;2.95;0.20;;;;;;;;;;5050016;28;20064;-83
2021/01/16 04:35:29;;;;;;;3.85;0.30;;;;;;;;;;5052874;28;20033;-77
2021/01/16 04:37:56;;;;;;;4.65;0.35;;;;;;;;;;5050523;28;20025;-79
2021/01/16 04:40:23;;;;;;;1.77;0.50;;;;;;;;;;5051134;28;20033;-79
2021/01/16 04:42:52;;;;;;;2.05;0.30;;;;;;;;;;5032760;28;20107;-78
2021/01/16 04:45:19;;;;;;;2.92;0.28;;;;;;;;;;5051544;28;20020;-77
2021/01/16 04:47:47;;;;;;;5.85;0.20;;;;;;;;;;5048171;28;20021;-78
2021/01/16 04:50:16;;;;;;;1.33;0.20;;;;;;;;;;5047733;28;20100;-77
2021/01/16 04:52:43;;;;;;;1.35;0.20;;;;;;;;;;5048895;28;20051;-86
2021/01/16 04:55:11;;;;;;;4.28;0.20;;;;;;;;;;5089227;22;20086;-79
2021/01/16 04:57:39;;;;;;;1.80;0.20;;;;;;;;;;5074546;22;20053;-81
2021/01/16 05:00:08;;;;;;;2.50;0.45;;;;;;;;;;5033194;28;20069;-78
2021/01/16 05:02:40;;;;;;;0.85;0.20;;;;;;;;;;5037566;22;20098;-78
2021/01/16 05:05:11;;;;;;;2.88;0.20;;;;;;;;;;5028466;28;20108;-82
2021/01/16 05:07:41;;;;;;;2.67;0.47;;;;;;;;;;5030344;28;20076;-81
2021/01/16 05:10:09;;;;;;;2.97;0.20;;;;;;;;;;5031176;28;20036;-83
2021/01/16 05:12:58;;;;;;;1.30;0.17;;;;;;;;;;5032333;22;20550;-76
2021/01/16 05:15:30;;;;;;;2.78;0.52;;;;;;;;;;5010845;28;20484;-77
2021/01/16 05:18:05;;;;;;;1.02;0.20;;;;;;;;;;5010969;28;20061;-76
2021/01/16 05:20:33;;;;;;;4.97;1.13;;;;;;;;;;5012748;28;20120;-78
2021/01/16 05:23:13;;;;;;;1.08;0.30;;;;;;;;;;5007046;28;20030;-76
2021/01/16 05:25:45;;;;;;;3.45;0.28;;;;;;;;;;5010759;28;20454;-75
2021/01/16 05:28:13;;;;;;;1.90;0.20;;;;;;;;;;5054251;22;20040;-76
2021/01/16 05:30:46;;;;;;;2.75;0.63;;;;;;;;;;5071828;28;20025;-75
2021/01/16 05:33:14;;;;;;;0.63;0.20;;;;;;;;;;5061509;28;20051;-84
2021/01/16 05:35:41;;;;;;;1.25;0.15;;;;;;;;;;5069026;28;20024;-76
2021/01/16 05:38:08;;;;;;;1.10;0.20;;;;;;;;;;5050450;28;20386;-80
2021/01/16 05:40:35;;;;;;;2.00;0.20;;;;;;;;;;5071717;28;20119;-78
2021/01/16 05:43:03;;;;;;;3.78;0.70;;;;;;;;;;5069468;28;20067;-76
2021/01/16 05:45:33;;;;;;;1.13;0.20;;;;;;;;;;5071422;28;20066;-77
2021/01/16 05:48:01;;;;;;;0.63;0.10;;;;;;;;;;5069171;28;20023;-76
2021/01/16 05:50:28;;;;;;;2.83;0.32;;;;;;;;;;5071476;28;20066;-76
2021/01/16 05:52:56;;;;;;;1.20;0.10;;;;;;;;;;5052311;28;20051;-74
2021/01/16 05:55:23;;;;;;;1.88;0.73;;;;;;;;;;5071642;28;20020;-75
2021/01/16 05:58:00;;;;;;;1.55;0.30;;;;;;;;;;5067829;28;20503;-79
2021/01/16 06:00:34;;;;;;;0.93;0.20;;;;;;;;;;5062847;22;20075;-75
2021/01/16 06:03:02;;;;;;;0.85;0.20;;;;;;;;;;5071418;28;20044;-76
2021/01/16 06:05:29;;;;;;;4.22;0.22;;;;;;;;;;5080987;28;20027;-76
2021/01/16 06:07:56;;;;;;;2.40;0.30;;;;;;;;;;5078156;28;20025;-76
2021/01/16 06:10:24;;;;;;;1.50;0.22;;;;;;;;;;5055928;28;20021;-77
2021/01/16 06:12:52;;;;;;;1.42;0.10;;;;;;;;;;5051837;28;20025;-76
2021/01/16 06:15:20;;;;;;;2.47;0.13;;;;;;;;;;5051377;28;20017;-76
2021/01/16 06:17:49;;;;;;;3.20;0.20;;;;;;;;;;5051595;28;20037;-76
2021/01/16 06:20:21;;;;;;;2.45;0.30;;;;;;;;;;5071531;28;20036;-76
2021/01/16 06:22:51;;;;;;;1.40;0.30;;;;;;;;;;5070616;28;20017;-76
2021/01/16 06:25:19;;;;;;;1.40;0.30;;;;;;;;;;5063852;28;20029;-76
2021/01/16 06:27:47;;;;;;;8.57;0.47;;;;;;;;;;5053965;28;20031;-78
2021/01/16 06:30:15;;;;;;;6.03;0.65;;;;;;;;;;5050232;28;20146;-78
2021/01/16 06:32:50;;;;;;;2.65;0.40;;;;;;;;;;5050580;28;20017;-77
2021/01/16 06:35:17;;;;;;;1.25;0.10;;;;;;;;;;5070905;28;20031;-76
2021/01/16 06:37:46;;;;;;;2.20;0.38;;;;;;;;;;5070661;28;20076;-79
2021/01/16 06:40:14;;;;;;;1.00;0.20;;;;;;;;;;5054024;28;20389;-77
2021/01/16 06:42:41;;;;;;;1.55;0.30;;;;;;;;;;5057019;28;20025;-77
2021/01/16 06:45:10;;;;;;;2.58;0.20;;;;;;;;;;5057190;28;20115;-80
2021/01/16 06:47:38;;;;;;;2.00;0.30;;;;;;;;;;5050996;28;20119;-80
2021/01/16 06:50:06;;;;;;;1.50;0.38;;;;;;;;;;5057619;28;20037;-80
2021/01/16 06:52:38;;;;;;;2.97;0.50;;;;;;;;;;5053707;28;20016;-80
2021/01/16 06:55:07;;;;;;;1.27;0.28;;;;;;;;;;5054241;28;20096;-78
2021/01/16 06:57:34;;;;;;;1.52;0.30;;;;;;;;;;5045264;28;20093;-79
2021/01/16 07:00:05;;;;;;;3.33;0.20;;;;;;;;;;5053009;28;20048;-78
2021/01/16 07:02:35;;;;;;;1.60;0.17;;;;;;;;;;5088538;22;20065;-76
2021/01/16 07:05:07;;;;;;;3.83;0.28;;;;;;;;;;5057956;22;20048;-75
2021/01/16 07:07:35;;;;;;;2.72;0.17;;;;;;;;;;5054837;28;20489;-75
2021/01/16 07:10:05;;;;;;;2.72;0.30;;;;;;;;;;5087842;22;20101;-75
2021/01/16 07:12:32;;;;;;;3.50;0.28;;;;;;;;;;5057793;28;20381;-76
2021/01/16 07:15:00;;;;;;;2.72;0.30;;;;;;;;;;5066761;28;20181;-78
2021/01/16 07:17:28;;;;;;;2.53;0.40;;;;;;;;;;5086096;22;20049;-78
2021/01/16 07:19:58;;;;;;;1.77;0.30;;;;;;;;;;5050762;28;20037;-77
2021/01/16 07:22:29;;;;;;;1.08;0.15;;;;;;;;;;5053196;28;20478;-77
2021/01/16 07:24:57;;;;;;;1.95;0.20;;;;;;;;;;5032259;28;20394;-77
2021/01/16 07:27:28;;;;;;;1.30;0.20;;;;;;;;;;5054135;28;20600;-76
2021/01/16 07:29:59;;;;;;;2.58;0.50;;;;;;;;;;5017096;28;20087;-78
2021/01/16 07:32:46;;;;;;;2.03;0.20;;;;;;;;;;5032455;28;20031;-78
2021/01/16 07:35:15;;;;;;;1.25;0.40;;;;;;;;;;5071275;22;20053;-79
2021/01/16 07:37:44;;;;;;;2.33;0.15;;;;;;;;;;5053511;28;20028;-78
2021/01/16 07:40:21;;;;;;;1.40;0.20;;;;;;;;;;5037922;28;20033;-78
2021/01/16 07:42:52;;;;;;;0.98;0.13;;;;;;;;;;5014596;28;20504;-78
2021/01/16 07:45:27;;;;;;;2.47;0.30;;;;;;;;;;5014564;28;20390;-77
2021/01/16 07:47:55;;;;;;;1.75;0.30;;;;;;;;;;5014464;28;20056;-78
2021/01/16 07:50:26;;;;;;;1.05;0.20;;;;;;;;;;5022094;28;20030;-77
2021/01/16 07:53:04;;;;;;;0.60;0.35;;;;;;;;;;5013978;28;20026;-77
2021/01/16 07:55:37;;;;;;;1.13;0.40;;;;;;;;;;5014278;28;20038;-76
2021/01/16 07:58:13;;;;;;;2.33;0.50;;;;;;;;;;5018775;28;20487;-79
2021/01/16 08:00:42;;;;;;;2.28;0.40;;;;;;;;;;5032222;28;20041;-77
2021/01/16 08:03:27;;;;;;;2.00;0.30;;;;;;;;;;5030115;28;20018;-78
2021/01/16 08:06:12;;;;;;;1.38;0.30;;;;;;;;;;5033759;28;20029;-79
2021/01/16 08:08:48;;;;;;;3.05;1.00;;;;;;;;;;5056087;22;20102;-78
2021/01/16 08:11:17;;;;;;;3.30;0.40;;;;;;;;;;5053716;28;20048;-78
2021/01/16 08:13:45;;;;;;;1.73;0.20;;;;;;;;;;5051888;28;20025;-79
2021/01/16 08:16:14;;;;;;;0.98;0.30;;;;;;;;;;5052250;28;20021;-78
2021/01/16 08:18:45;;;;;;;1.00;0.20;;;;;;;;;;5026474;28;20025;-78
2021/01/16 08:21:14;;;;;;;6.57;1.13;;;;;;;;;;5032301;28;20021;-78
2021/01/16 08:23:49;;;;;;;1.65;0.20;;;;;;;;;;5040622;28;20049;-78
2021/01/16 08:26:15;;;;;;;;;;;;;;;;;;5053913;28;20009;-78
2021/01/16 08:28:44;;;;;;;3.15;0.47;;;;;;;;;;5050204;28;19909;-77
2021/01/16 08:31:27;;;;;;;1.02;0.10;;;;;;;;;;5053452;28;20028;-78
2021/01/16 08:33:54;;;;;;;2.35;0.43;;;;;;;;;;5049135;28;20021;-78
2021/01/16 08:36:22;;;;;;;1.52;0.30;;;;;;;;;;5053275;28;20021;-77
2021/01/16 08:38:50;;;;;;;1.88;0.20;;;;;;;;;;5050131;28;20025;-78
2021/01/16 08:41:21;;;;;;;1.58;0.20;;;;;;;;;;5035171;28;20615;-78
2021/01/16 08:43:53;;;;;;;1.02;0.20;;;;;;;;;;5051466;28;20473;-80
2021/01/16 08:46:24;;;;;;;2.35;0.30;;;;;;;;;;5052872;28;20044;-77
2021/01/16 08:48:59;;;;;;;2.30;0.30;;;;;;;;;;5049763;28;20037;-78
2021/01/16 08:51:27;;;;;;;2.25;0.20;;;;;;;;;;5051426;28;20028;-78
2021/01/16 08:54:07;;;;;;;3.03;0.30;;;;;;;;;;5049964;28;20055;-78
2021/01/16 08:56:34;;;;;;;2.00;0.25;;;;;;;;;;5052564;28;20032;-79
2021/01/16 08:59:15;;;;;;;2.70;0.28;;;;;;;;;;5050252;28;20037;-77
2021/01/16 09:01:42;;;;;;;1.15;0.20;;;;;;;;;;5052959;28;20029;-80
2021/01/16 09:04:22;;;;;;;1.23;0.20;;;;;;;;;;5051129;28;20024;-77
2021/01/16 09:06:50;;;;;;;3.08;0.47;;;;;;;;;;5052077;28;20414;-77
2021/01/16 09:09:27;;;;;;;3.10;0.75;;;;;;;;;;5066015;22;20049;-79
2021/01/16 09:12:07;;;;;;;4.97;0.68;;;;;;;;;;5068598;22;20458;-78
2021/01/16 09:14:35;;;;;;;2.63;0.60;;;;;;;;;;5050250;28;20029;-78
2021/01/16 09:17:16;;;;;;;3.42;0.30;;;;;;;;;;5067801;22;20433;-78
2021/01/16 09:19:43;;;;;;;0.77;0.30;;;;;;;;;;5038516;28;20065;-78
2021/01/16 09:22:29;;;;;;;3.83;0.38;;;;;;;;;;5032626;28;20371;-78
2021/01/16 09:25:16;;;;;;;4.38;0.95;;;;;;;;;;5056244;22;20139;-78
2021/01/16 09:27:46;;;;;;;0.90;0.20;;;;;;;;;;5071159;28;20028;-78
2021/01/16 09:30:27;;;;;;;1.27;0.20;;;;;;;;;;5072153;28;20028;-78
2021/01/16 09:32:54;;;;;;;1.80;0.40;;;;;;;;;;5071076;28;20074;-78
2021/01/16 09:35:38;;;;;;;2.83;0.35;;;;;;;;;;5072435;28;20017;-78
2021/01/16 09:38:15;;;;;;;3.38;0.30;;;;;;;;;;5068766;28;20481;-78
2021/01/16 09:40:42;;;;;;;2.97;0.50;;;;;;;;;;5070812;22;20512;-77
2021/01/16 09:43:20;;;;;;;1.58;0.40;;;;;;;;;;5048301;28;20163;-78
2021/01/16 09:45:57;;;;;;;3.88;0.32;;;;;;;;;;5037974;28;20028;-78
2021/01/16 09:48:34;;;;;;;2.00;0.35;;;;;;;;;;5048803;28;20036;-78
2021/01/16 09:51:02;;;;;;;1.70;0.40;;;;;;;;;;5032053;28;20029;-78
2021/01/16 09:53:29;;;;;;;2.33;0.30;;;;;;;;;;5013394;28;20070;-78
2021/01/16 09:55:57;;;;;;;4.53;0.50;;;;;;;;;;5031935;28;20394;-78
2021/01/16 09:58:42;;;;;;;1.55;0.50;;;;;;;;;;5016900;28;20101;-78
2021/01/16 10:01:18;;;;;;;1.75;0.40;;;;;;;;;;5012444;28;20525;-78
2021/01/16 10:03:46;;;;;;;4.95;0.30;;;;;;;;;;5012399;28;20368;-78
2021/01/16 10:06:17;;;;;;;3.03;0.43;;;;;;;;;;5029110;28;20053;-78
2021/01/16 10:08:44;;;;;;;3.10;1.00;;;;;;;;;;5037039;28;20013;-78
2021/01/16 10:11:13;;;;;;;2.80;0.25;;;;;;;;;;5033938;28;20041;-78
2021/01/16 10:13:41;;;;;;;4.28;0.60;;;;;;;;;;5067027;22;20478;-77
2021/01/16 10:16:09;;;;;;;2.15;0.57;;;;;;;;;;5011379;28;20053;-78
2021/01/16 10:18:37;;;;;;;1.75;0.55;;;;;;;;;;5004627;28;20054;-78
2021/01/16 10:21:05;;;;;;;1.45;0.40;;;;;;;;;;4992195;28;20026;-78
2021/01/16 10:23:33;;;;;;;1.95;0.47;;;;;;;;;;4991168;28;20054;-78
2021/01/16 10:26:02;;;;;;;2.15;0.40;;;;;;;;;;4992450;28;20022;-78
2021/01/16 10:28:34;;;;;;;2.28;0.30;;;;;;;;;;4990115;28;20105;-78
2021/01/16 10:31:03;;;;;;;0.95;0.30;;;;;;;;;;4991075;28;20494;-78
2021/01/16 10:33:50;;;;;;;2.67;0.30;;;;;;;;;;4990253;28;20034;-77
2021/01/16 10:36:18;;;;;;;1.58;0.30;;;;;;;;;;4990312;28;20029;-78
2021/01/16 10:38:47;;;;;;;1.30;0.20;;;;;;;;;;4991576;28;20464;-78
2021/01/16 10:41:16;;;;;;;1.35;0.40;;;;;;;;;;4993994;28;20089;-78
2021/01/16 10:43:44;;;;;;;2.80;0.38;;;;;;;;;;4994912;28;20023;-78
2021/01/16 10:46:30;;;;;;;1.70;0.38;;;;;;;;;;4994716;28;20380;-78
2021/01/16 10:49:16;;;;;;;1.60;0.40;;;;;;;;;;4994486;28;20357;-78
2021/01/16 10:51:54;;;;;;;4.07;0.30;;;;;;;;;;4995599;28;20487;-78
2021/01/16 10:54:22;;;;;;;3.33;0.20;;;;;;;;;;4993127;28;20019;-78
2021/01/16 10:56:58;;;;;;;2.33;0.40;;;;;;;;;;4994379;28;20030;-78
2021/01/16 10:59:26;;;;;;;1.75;0.30;;;;;;;;;;4983575;28;20476;-78
2021/01/16 11:01:53;;;;;;;1.45;0.20;;;;;;;;;;4993138;28;20133;-77
2021/01/16 11:04:20;;;;;;;3.67;0.35;;;;;;;;;;4994132;28;20120;-80
2021/01/16 11:06:52;;;;;;;2.15;0.30;;;;;;;;;;4993999;28;20041;-79
2021/01/16 11:09:37;;;;;;;2.60;0.30;;;;;;;;;;4989131;28;20026;-79
2021/01/16 11:12:04;;;;;;;2.90;0.20;;;;;;;;;;4987738;28;20030;-79
2021/01/16 11:17:02;;;;;;;2.10;0.30;;;;;;;;;;5081205;22;20052;-79
2021/01/16 11:19:33;;;;;;;6.32;0.80;;;;;;;;;;5084508;22;20059;-79
2021/01/16 11:22:06;;;;;;;4.50;0.50;;;;;;;;;;5070234;28;20029;-79
2021/01/16 11:24:54;;;;;;;3.73;0.30;;;;;;;;;;5058259;22;20049;-79
2021/01/16 11:27:30;;;;;;;3.50;0.35;;;;;;;;;;5052079;28;20345;-79
2021/01/16 11:30:07;;;;;;;2.63;0.30;;;;;;;;;;5034622;28;20056;-79
2021/01/16 11:32:38;;;;;;;4.63;0.45;;;;;;;;;;5057679;22;20510;-79
2021/01/16 11:35:08;;;;;;;4.25;0.55;;;;;;;;;;5032388;28;20028;-79
2021/01/16 11:37:45;;;;;;;8.38;0.80;;;;;;;;;;5052839;28;20398;-79
2021/01/16 11:40:30;;;;;;;6.28;0.40;;;;;;;;;;5052568;28;20084;-79
2021/01/16 11:43:01;;;;;;;3.65;0.50;;;;;;;;;;5048568;28;20045;-79
2021/01/16 11:45:28;;;;;;;1.88;0.50;;;;;;;;;;5036685;28;20494;-79
2021/01/16 11:47:57;;;;;;;7.72;1.17;;;;;;;;;;5048470;22;20060;-79
2021/01/16 11:50:25;;;;;;;6.85;0.43;;;;;;;;;;5015206;28;20034;-79
2021/01/16 11:52:52;;;;;;;2.42;0.30;;;;;;;;;;4989480;28;20363;-79
2021/01/16 11:55:20;;;;;;;1.65;0.40;;;;;;;;;;4996255;28;20033;-79
2021/01/16 11:57:47;;;;;;;2.60;0.95;;;;;;;;;;5011771;28;20026;-79
2021/01/16 12:00:15;;;;;;;3.08;0.43;;;;;;;;;;5012273;28;20030;-79
2021/01/16 12:02:46;;;;;;;6.03;0.90;;;;;;;;;;5012941;28;20536;-79
2021/01/16 12:05:14;;;;;;;5.32;0.52;;;;;;;;;;5013158;28;20494;-79
2021/01/16 12:07:51;;;;;;;2.78;0.40;;;;;;;;;;5011774;28;20452;-79
2021/01/16 12:10:21;;;;;;;4.97;1.15;;;;;;;;;;5012590;28;20030;-79
2021/01/16 12:12:48;;;;;;;3.08;0.63;;;;;;;;;;5011532;28;20029;-79
2021/01/16 12:15:19;;;;;;;3.85;0.50;;;;;;;;;;5012829;28;20091;-79
2021/01/16 12:17:47;;;;;;;1.58;0.50;;;;;;;;;;5011688;28;20494;-79
2021/01/16 12:20:17;;;;;;;3.17;0.40;;;;;;;;;;5010635;28;20030;-79
2021/01/16 12:22:45;;;;;;;4.35;1.13;;;;;;;;;;5064107;22;20060;-79
2021/01/16 12:25:13;;;;;;;3.80;0.50;;;;;;;;;;5070390;28;20075;-79
2021/01/16 12:27:53;;;;;;;3.70;0.65;;;;;;;;;;5069693;28;20024;-79
2021/01/16 12:30:22;;;;;;;4.03;0.57;;;;;;;;;;5055309;28;20484;-79
2021/01/16 12:32:49;;;;;;;4.95;0.68;;;;;;;;;;5051283;28;20053;-79
2021/01/16 12:35:22;;;;;;;3.40;0.65;;;;;;;;;;5051777;28;20024;-79
2021/01/16 12:37:49;;;;;;;3.05;0.60;;;;;;;;;;5048561;28;20048;-78
2021/01/16 12:40:21;;;;;;;1.25;0.60;;;;;;;;;;5031138;28;20128;-79
2021/01/16 12:42:48;;;;;;;2.47;0.60;;;;;;;;;;5032352;28;20022;-79
2021/01/16 12:45:22;;;;;;;4.55;0.50;;;;;;;;;;5050881;28;20068;-79
2021/01/16 12:47:49;;;;;;;;;;;;;;;;;;5030399;28;20060;-79
2021/01/16 12:50:16;;;;;;;1.98;0.75;;;;;;;;;;5050495;28;19909;-79
2021/01/16 12:52:47;;;;;;;3.42;1.00;;;;;;;;;;5050186;28;20021;-79
2021/01/16 12:55:15;;;;;;;4.57;0.60;;;;;;;;;;5014335;28;20057;-79
2021/01/16 12:57:46;;;;;;;1.77;0.50;;;;;;;;;;5014905;28;20608;-79
2021/01/16 13:00:18;;;;;;;2.90;0.40;;;;;;;;;;5022506;28;20047;-79
2021/01/16 13:02:47;;;;;;;10.05;1.13;;;;;;;;;;5047206;28;20105;-79
2021/01/16 13:05:18;;;;;;;2.63;0.45;;;;;;;;;;5051182;28;20036;-79
2021/01/16 13:07:45;;;;;;;2.63;0.50;;;;;;;;;;5032290;28;20067;-79
2021/01/16 13:10:13;;;;;;;4.68;0.50;;;;;;;;;;5051461;28;20109;-79
2021/01/16 13:12:44;;;;;;;4.90;1.80;;;;;;;;;;5047398;28;20020;-79
2021/01/16 13:15:12;;;;;;;3.78;1.00;;;;;;;;;;5051191;28;20025;-79
2021/01/16 13:17:42;;;;;;;1.98;0.35;;;;;;;;;;5051055;28;20397;-79
2021/01/16 13:20:10;;;;;;;2.45;0.55;;;;;;;;;;5046148;28;20139;-80
2021/01/16 13:22:37;;;;;;;2.35;0.38;;;;;;;;;;5075116;22;20113;-79
2021/01/16 13:25:04;;;;;;;1.98;0.47;;;;;;;;;;5067485;22;20140;31
2021/01/16 13:27:32;;;;;;;1.75;0.65;;;;;;;;;;5029730;28;20057;-80
2021/01/16 13:30:16;;;;;;;4.75;0.77;;;;;;;;;;5053036;22;20044;-79
2021/01/16 13:32:48;;;;;;;4.50;0.50;;;;;;;;;;5068904;28;20442;-80
2021/01/16 13:35:17;;;;;;;1.17;0.30;;;;;;;;;;5070898;28;20377;-79
2021/01/16 13:37:51;;;;;;;4.60;0.75;;;;;;;;;;5069695;28;20070;-79
2021/01/16 13:40:21;;;;;;;3.97;0.50;;;;;;;;;;5060925;22;20060;-79
2021/01/16 13:42:49;;;;;;;1.50;0.30;;;;;;;;;;5052708;28;20035;-80
2021/01/16 13:45:20;;;;;;;1.35;0.40;;;;;;;;;;5051288;28;20021;-80
2021/01/16 13:47:57;;;;;;;3.60;0.45;;;;;;;;;;5069140;28;20551;-80
2021/01/16 13:50:25;;;;;;;1.50;0.30;;;;;;;;;;5060682;28;20058;-80
2021/01/16 13:52:52;;;;;;;5.10;0.70;;;;;;;;;;5069530;28;20012;-79
2021/01/16 13:55:20;;;;;;;3.35;0.75;;;;;;;;;;5079011;22;20315;-79
2021/01/16 13:58:00;;;;;;;4.10;0.30;;;;;;;;;;5087426;28;20043;-79
2021/01/16 14:00:30;;;;;;;1.80;0.40;;;;;;;;;;5062379;28;20189;-78
2021/01/16 14:02:58;;;;;;;3.08;0.82;;;;;;;;;;5088415;28;20035;-79
2021/01/16 14:05:26;;;;;;;4.53;0.32;;;;;;;;;;5091734;28;20118;-79
2021/01/16 14:07:54;;;;;;;4.35;0.32;;;;;;;;;;5088698;28;20023;-79
2021/01/16 14:10:28;;;;;;;5.03;0.45;;;;;;;;;;5090841;28;20495;-80
2021/01/16 14:13:05;;;;;;;3.95;0.40;;;;;;;;;;5067419;28;20558;-80
2021/01/16 14:15:33;;;;;;;2.17;0.50;;;;;;;;;;5087160;28;20027;-80
2021/01/16 14:18:00;;;;;;;3.50;0.55;;;;;;;;;;5084237;28;20032;-80
2021/01/16 14:20:35;;;;;;;2.55;0.43;;;;;;;;;;5090863;28;20089;-80
2021/01/16 14:23:02;;;;;;;5.82;0.60;;;;;;;;;;5087843;28;20024;-80
2021/01/16 14:25:38;;;;;;;7.63;0.90;;;;;;;;;;5090376;28;20113;-80
2021/01/16 14:28:06;;;;;;;4.25;0.68;;;;;;;;;;5089105;28;20037;-80
2021/01/16 14:30:34;;;;;;;4.53;0.50;;;;;;;;;;5106950;22;20074;-80
2021/01/16 14:33:08;;;;;;;4.43;0.52;;;;;;;;;;5087213;28;20440;-80
2021/01/16 14:35:35;;;;;;;4.53;1.15;;;;;;;;;;5088259;28;20039;-80
2021/01/16 14:38:06;;;;;;;2.63;0.68;;;;;;;;;;5089336;28;20031;-80
2021/01/16 14:40:35;;;;;;;6.45;1.60;;;;;;;;;;5080145;28;20033;-80
2021/01/16 14:43:04;;;;;;;3.65;0.47;;;;;;;;;;5072652;28;20028;-80
2021/01/16 14:45:31;;;;;;;3.60;0.32;;;;;;;;;;5091044;28;20028;-80
2021/01/16 14:48:11;;;;;;;1.92;0.68;;;;;;;;;;5087787;28;20358;-80
2021/01/16 14:50:38;;;;;;;4.75;0.50;;;;;;;;;;5070542;28;20052;-80
2021/01/16 14:53:17;;;;;;;3.88;1.20;;;;;;;;;;5076620;28;20381;-80
2021/01/16 14:55:59;;;;;;;5.03;0.70;;;;;;;;;;5069641;28;20024;-80
2021/01/16 14:58:26;;;;;;;3.08;0.30;;;;;;;;;;5082025;28;20032;-79
2021/01/16 15:00:53;;;;;;;4.53;0.60;;;;;;;;;;5089089;28;20032;-80
2021/01/16 15:03:31;;;;;;;4.32;0.65;;;;;;;;;;5088014;28;20376;-80